Time;durP1;ratioP1;P1;durP2;ratioP2;P2;SDS_P1;SDS_P2;PMS_P1;PMS_P2;Temp;Humidity;BMP_temperature;BMP_pressure;BME280_temperature;BME280_humidity;BME280_pressure;Samples;Min_cycle;Max_cycle;Signal;HPM_P1;HPM_P2
2024/01/30 00:01:45;;;;;;;249.70;52.17;;;;;;;;;;5051231;28;20028;-46
2024/01/30 00:04:11;;;;;;;525.80;79.83;;;;;;;;;;5051518;28;20311;-47
2024/01/30 00:06:37;;;;;;;321.65;60.65;;;;;;;;;;5054506;28;20282;-47
2024/01/30 00:09:05;;;;;;;336.05;59.58;;;;;;;;;;5071548;28;20028;-47
2024/01/30 00:11:31;;;;;;;235.10;50.70;;;;;;;;;;5070951;28;20045;-47
2024/01/30 00:13:57;;;;;;;550.10;90.47;;;;;;;;;;5052985;28;20025;-47
2024/01/30 00:16:24;;;;;;;284.17;54.30;;;;;;;;;;5071099;28;20556;-49
2024/01/30 00:18:53;;;;;;;242.02;50.80;;;;;;;;;;5071037;28;20278;-47
2024/01/30 00:21:20;;;;;;;435.50;73.85;;;;;;;;;;5036592;28;20028;-49
2024/01/30 00:23:47;;;;;;;296.40;57.35;;;;;;;;;;5071534;28;20425;-50
2024/01/30 00:26:14;;;;;;;253.65;52.63;;;;;;;;;;5052703;28;20036;-47
2024/01/30 00:28:41;;;;;;;366.08;62.65;;;;;;;;;;5053131;28;20485;-47
2024/01/30 00:31:07;;;;;;;256.75;53.85;;;;;;;;;;5070869;28;20491;-47
2024/01/30 00:33:33;;;;;;;287.20;58.67;;;;;;;;;;5070938;28;20021;-48
2024/01/30 00:36:00;;;;;;;398.80;63.80;;;;;;;;;;5053064;28;20032;-47
2024/01/30 00:38:26;;;;;;;201.52;47.10;;;;;;;;;;5070781;28;20144;-48
2024/01/30 00:40:52;;;;;;;213.23;49.65;;;;;;;;;;5071128;28;20024;-48
2024/01/30 00:43:18;;;;;;;336.60;63.95;;;;;;;;;;5071251;28;20033;-49
2024/01/30 00:45:44;;;;;;;442.00;70.70;;;;;;;;;;5070855;28;20032;-47
2024/01/30 00:48:10;;;;;;;431.67;78.07;;;;;;;;;;5073160;28;20107;-47
2024/01/30 00:50:37;;;;;;;354.05;63.25;;;;;;;;;;5074903;28;20902;-47
2024/01/30 00:53:03;;;;;;;200.03;49.20;;;;;;;;;;5074691;28;20021;-47
2024/01/30 00:55:29;;;;;;;252.98;54.30;;;;;;;;;;5074436;28;20445;-47
2024/01/30 00:57:56;;;;;;;255.45;51.42;;;;;;;;;;5056733;28;20116;-47
2024/01/30 01:00:28;;;;;;;253.65;50.83;;;;;;;;;;5074775;28;20501;-47
2024/01/30 01:02:55;;;;;;;192.43;42.67;;;;;;;;;;5074572;28;20494;-50
2024/01/30 01:05:21;;;;;;;309.63;51.25;;;;;;;;;;5074399;28;20032;-47
2024/01/30 01:07:50;;;;;;;318.43;53.47;;;;;;;;;;5065678;28;20036;-47
2024/01/30 01:10:19;;;;;;;327.55;54.40;;;;;;;;;;5061015;28;20270;-47
2024/01/30 01:12:46;;;;;;;324.55;66.38;;;;;;;;;;5067934;28;20025;-47
2024/01/30 01:15:12;;;;;;;298.63;45.45;;;;;;;;;;5074139;28;20095;-47
2024/01/30 01:17:39;;;;;;;332.67;63.50;;;;;;;;;;5056530;28;20016;-46
2024/01/30 01:20:06;;;;;;;;;;;;;;;;;;5057004;28;20432;-47
2024/01/30 01:22:32;;;;;;;239.07;48.05;;;;;;;;;;5056510;28;19908;-47
2024/01/30 01:24:59;;;;;;;409.65;70.43;;;;;;;;;;5074029;28;20474;-47
2024/01/30 01:27:25;;;;;;;221.90;52.80;;;;;;;;;;5074012;28;20032;-48
2024/01/30 01:29:52;;;;;;;292.25;57.20;;;;;;;;;;5074262;28;20110;-48
2024/01/30 01:32:18;;;;;;;204.50;47.00;;;;;;;;;;5073680;28;20589;-47
2024/01/30 01:34:44;;;;;;;216.63;48.80;;;;;;;;;;5074069;28;20483;-47
2024/01/30 01:37:10;;;;;;;371.95;67.15;;;;;;;;;;5074046;28;20031;-47
2024/01/30 01:39:37;;;;;;;267.45;50.53;;;;;;;;;;5074222;28;20120;-47
2024/01/30 01:42:03;;;;;;;251.20;49.28;;;;;;;;;;5074241;28;20478;-46
2024/01/30 01:44:29;;;;;;;315.15;55.85;;;;;;;;;;5074118;28;20059;-49
2024/01/30 01:46:57;;;;;;;250.43;49.67;;;;;;;;;;5073758;28;20437;-48
2024/01/30 01:49:25;;;;;;;456.10;68.03;;;;;;;;;;5073839;28;20346;-48
2024/01/30 01:51:52;;;;;;;227.38;49.97;;;;;;;;;;5073826;28;20078;-48
2024/01/30 01:54:19;;;;;;;262.98;54.47;;;;;;;;;;5074209;28;20502;-47
2024/01/30 01:56:45;;;;;;;225.27;47.60;;;;;;;;;;5073966;28;20032;-48
2024/01/30 01:59:11;;;;;;;278.87;54.50;;;;;;;;;;5073172;28;20093;-47
2024/01/30 02:01:38;;;;;;;209.07;49.33;;;;;;;;;;5074207;28;20615;-47
2024/01/30 02:04:04;;;;;;;281.50;52.03;;;;;;;;;;5073751;28;20062;-49
2024/01/30 02:06:31;;;;;;;226.70;48.78;;;;;;;;;;5073241;28;20086;-47
2024/01/30 02:08:58;;;;;;;324.90;51.17;;;;;;;;;;5073582;28;20031;-47
2024/01/30 02:11:24;;;;;;;162.18;35.10;;;;;;;;;;5055841;28;20037;-49
2024/01/30 02:13:50;;;;;;;236.23;42.25;;;;;;;;;;5073552;28;20052;-47
2024/01/30 02:16:20;;;;;;;204.83;39.97;;;;;;;;;;5073132;28;20028;-47
2024/01/30 02:18:47;;;;;;;234.32;45.22;;;;;;;;;;5055419;28;20487;-48
2024/01/30 02:21:17;;;;;;;249.02;43.63;;;;;;;;;;5055467;28;20419;-47
2024/01/30 02:23:45;;;;;;;263.63;46.75;;;;;;;;;;5073488;28;20028;-47
2024/01/30 02:26:11;;;;;;;193.98;40.42;;;;;;;;;;5072958;28;20040;-48
2024/01/30 02:28:38;;;;;;;230.68;45.03;;;;;;;;;;5073112;28;20051;-47
2024/01/30 02:31:04;;;;;;;167.80;40.93;;;;;;;;;;5055375;28;20463;-47
2024/01/30 02:33:31;;;;;;;193.80;41.22;;;;;;;;;;5054982;28;20119;-47
2024/01/30 02:35:57;;;;;;;212.37;47.30;;;;;;;;;;5073021;28;20028;-47
2024/01/30 02:38:23;;;;;;;143.27;38.60;;;;;;;;;;5072754;28;20029;-47
2024/01/30 02:40:50;;;;;;;189.30;43.93;;;;;;;;;;5072598;28;20033;-46
2024/01/30 02:43:16;;;;;;;171.52;40.65;;;;;;;;;;5073046;28;20269;-48
2024/01/30 02:45:43;;;;;;;194.50;41.40;;;;;;;;;;5072412;28;20123;-48
2024/01/30 02:48:09;;;;;;;131.80;39.30;;;;;;;;;;5072644;28;20104;-47
2024/01/30 02:50:35;;;;;;;184.20;40.13;;;;;;;;;;5072732;28;20028;-48
2024/01/30 02:53:01;;;;;;;138.10;38.10;;;;;;;;;;5054938;28;20040;-49
2024/01/30 02:55:27;;;;;;;120.82;36.05;;;;;;;;;;5072565;28;20262;-48
2024/01/30 02:57:53;;;;;;;194.13;41.17;;;;;;;;;;5072469;28;20500;-47
2024/01/30 03:00:20;;;;;;;146.80;35.47;;;;;;;;;;5072405;28;20373;-47
2024/01/30 03:02:46;;;;;;;176.70;39.75;;;;;;;;;;5072588;28;20024;-46
2024/01/30 03:05:13;;;;;;;170.23;41.45;;;;;;;;;;5072219;28;20017;-50
2024/01/30 03:07:39;;;;;;;270.00;45.53;;;;;;;;;;5072223;28;20043;-49
2024/01/30 03:10:06;;;;;;;195.40;41.80;;;;;;;;;;5072384;28;20029;-48
2024/01/30 03:12:32;;;;;;;259.65;50.17;;;;;;;;;;5071379;28;20067;-47
2024/01/30 03:14:58;;;;;;;171.47;42.60;;;;;;;;;;5072279;28;20021;-48
2024/01/30 03:17:24;;;;;;;200.85;42.70;;;;;;;;;;5072124;28;20270;-47
2024/01/30 03:19:51;;;;;;;188.43;42.33;;;;;;;;;;5072178;28;20513;-48
2024/01/30 03:22:17;;;;;;;257.98;47.15;;;;;;;;;;5072164;28;20274;-50
2024/01/30 03:24:43;;;;;;;131.75;37.80;;;;;;;;;;5072190;28;20021;-49
2024/01/30 03:27:10;;;;;;;188.10;43.88;;;;;;;;;;5053833;28;20038;-48
2024/01/30 03:29:36;;;;;;;129.07;36.85;;;;;;;;;;5071994;28;20479;-47
2024/01/30 03:32:03;;;;;;;315.70;52.35;;;;;;;;;;5071938;28;20051;-47
2024/01/30 03:34:30;;;;;;;329.23;54.03;;;;;;;;;;5071914;28;20032;-46
2024/01/30 03:36:56;;;;;;;161.93;37.85;;;;;;;;;;5053680;28;20039;-48
2024/01/30 03:39:23;;;;;;;154.93;38.33;;;;;;;;;;5071917;28;20093;-47
2024/01/30 03:41:49;;;;;;;208.90;43.63;;;;;;;;;;5037068;28;20040;-48
2024/01/30 03:44:16;;;;;;;246.03;44.93;;;;;;;;;;5053535;28;20074;-48
2024/01/30 03:46:42;;;;;;;177.90;43.65;;;;;;;;;;5070148;28;20029;-48
2024/01/30 03:49:08;;;;;;;230.87;47.60;;;;;;;;;;5071461;28;20029;-47
2024/01/30 03:51:34;;;;;;;183.82;44.55;;;;;;;;;;5071309;28;20103;-47
2024/01/30 03:54:00;;;;;;;167.70;41.63;;;;;;;;;;5070469;28;20031;-47
2024/01/30 03:56:26;;;;;;;190.55;42.85;;;;;;;;;;5069896;28;20028;-47
2024/01/30 03:58:53;;;;;;;455.00;73.17;;;;;;;;;;5070675;28;20047;-47
2024/01/30 04:01:19;;;;;;;213.30;44.17;;;;;;;;;;5070599;28;20394;-47
2024/01/30 04:03:45;;;;;;;136.20;38.20;;;;;;;;;;5070742;28;20032;-48
2024/01/30 04:06:11;;;;;;;145.98;39.25;;;;;;;;;;5071070;28;20329;-48
2024/01/30 04:08:38;;;;;;;197.02;40.70;;;;;;;;;;5071298;28;20029;-47
2024/01/30 04:11:07;;;;;;;149.47;38.37;;;;;;;;;;5070297;28;20028;-50
2024/01/30 04:13:34;;;;;;;201.73;42.53;;;;;;;;;;5036635;28;20263;-47
2024/01/30 04:16:04;;;;;;;209.25;37.85;;;;;;;;;;5071058;28;20028;-47
2024/01/30 04:18:30;;;;;;;172.88;41.35;;;;;;;;;;5071261;28;20032;-49
2024/01/30 04:20:57;;;;;;;258.70;46.88;;;;;;;;;;5053431;28;20494;-47
2024/01/30 04:23:23;;;;;;;142.25;39.55;;;;;;;;;;5055332;28;20029;-47
2024/01/30 04:25:49;;;;;;;178.70;42.20;;;;;;;;;;5075402;28;20482;-47
2024/01/30 04:28:15;;;;;;;110.28;35.90;;;;;;;;;;5074642;28;20162;-47
2024/01/30 04:30:41;;;;;;;221.27;45.23;;;;;;;;;;5075551;28;20066;-47
2024/01/30 04:33:08;;;;;;;156.13;38.83;;;;;;;;;;5075337;28;20268;-47
2024/01/30 04:35:35;;;;;;;137.23;38.00;;;;;;;;;;5057341;28;20486;-47
2024/01/30 04:38:01;;;;;;;153.70;37.58;;;;;;;;;;5040506;28;20448;-47
2024/01/30 04:40:28;;;;;;;148.40;38.23;;;;;;;;;;5074129;28;20082;-47
2024/01/30 04:42:54;;;;;;;160.53;40.17;;;;;;;;;;5074975;28;20037;-47
2024/01/30 04:45:20;;;;;;;149.30;40.50;;;;;;;;;;5073922;28;20457;-47
2024/01/30 04:47:46;;;;;;;139.67;39.90;;;;;;;;;;5074704;28;20107;-46
2024/01/30 04:50:12;;;;;;;259.90;48.53;;;;;;;;;;5074598;28;20037;-51
2024/01/30 04:52:39;;;;;;;244.10;49.00;;;;;;;;;;5074873;28;20067;-48
2024/01/30 04:55:05;;;;;;;152.32;40.67;;;;;;;;;;5074738;28;20325;-48
2024/01/30 04:57:33;;;;;;;115.70;37.28;;;;;;;;;;5056809;28;20498;-45
2024/01/30 04:59:59;;;;;;;114.93;36.47;;;;;;;;;;5074256;28;20024;-47
2024/01/30 05:02:26;;;;;;;182.13;41.45;;;;;;;;;;5075292;28;20029;-47
2024/01/30 05:04:52;;;;;;;149.75;38.17;;;;;;;;;;5074946;28;20393;-47
2024/01/30 05:07:18;;;;;;;148.38;42.92;;;;;;;;;;5065972;28;20024;-47
2024/01/30 05:09:44;;;;;;;173.97;39.57;;;;;;;;;;5095057;28;20502;-47
2024/01/30 05:12:10;;;;;;;162.48;39.97;;;;;;;;;;5095059;28;20288;-47
2024/01/30 05:14:36;;;;;;;224.40;41.30;;;;;;;;;;5094980;28;20024;-47
2024/01/30 05:17:03;;;;;;;153.57;42.90;;;;;;;;;;5094759;28;20266;-47
2024/01/30 05:19:29;;;;;;;174.40;42.42;;;;;;;;;;5094832;28;20032;-47
2024/01/30 05:21:56;;;;;;;215.73;47.17;;;;;;;;;;5077032;28;20043;-47
2024/01/30 05:24:22;;;;;;;201.67;49.27;;;;;;;;;;5094850;28;20165;-47
2024/01/30 05:26:48;;;;;;;278.90;58.97;;;;;;;;;;5094485;28;20027;-47
2024/01/30 05:29:14;;;;;;;167.47;46.13;;;;;;;;;;5094537;28;20032;-47
2024/01/30 05:31:40;;;;;;;301.50;57.30;;;;;;;;;;5076670;28;20367;-47
2024/01/30 05:34:07;;;;;;;413.03;74.33;;;;;;;;;;5093519;28;20138;-47
2024/01/30 05:36:33;;;;;;;229.40;51.15;;;;;;;;;;5094393;28;20110;-47
2024/01/30 05:38:59;;;;;;;170.20;51.23;;;;;;;;;;5076613;28;20028;-47
2024/01/30 05:41:26;;;;;;;256.07;58.13;;;;;;;;;;5094487;28;20036;-48
2024/01/30 05:43:52;;;;;;;143.48;45.55;;;;;;;;;;5076410;28;20419;-48
2024/01/30 05:46:18;;;;;;;153.20;48.17;;;;;;;;;;5094151;28;20043;-47
2024/01/30 05:48:44;;;;;;;152.97;48.17;;;;;;;;;;5076235;28;20024;-48
2024/01/30 05:51:10;;;;;;;327.52;68.20;;;;;;;;;;5094309;28;20027;-47
2024/01/30 05:53:37;;;;;;;217.00;49.63;;;;;;;;;;5094354;28;20482;-47
2024/01/30 05:56:03;;;;;;;150.13;46.80;;;;;;;;;;5094104;28;20037;-47
2024/01/30 05:58:30;;;;;;;200.67;48.40;;;;;;;;;;5094162;28;20028;-48
2024/01/30 06:00:57;;;;;;;178.88;45.90;;;;;;;;;;5094073;28;20276;-48
2024/01/30 06:03:24;;;;;;;180.18;43.15;;;;;;;;;;5093943;28;20085;-48
2024/01/30 06:05:50;;;;;;;258.30;51.55;;;;;;;;;;5093823;28;20085;-48
2024/01/30 06:08:17;;;;;;;220.65;52.72;;;;;;;;;;5093869;28;20028;-48
2024/01/30 06:10:43;;;;;;;121.30;42.27;;;;;;;;;;5078363;28;20021;-47
2024/01/30 06:13:09;;;;;;;195.10;49.27;;;;;;;;;;5073671;28;20016;-47
2024/01/30 06:15:35;;;;;;;216.07;45.50;;;;;;;;;;5073475;28;20339;-47
2024/01/30 06:18:01;;;;;;;321.43;57.73;;;;;;;;;;5073397;28;20035;-48
2024/01/30 06:20:28;;;;;;;286.63;54.80;;;;;;;;;;5073556;28;20075;-47
2024/01/30 06:22:54;;;;;;;209.35;48.45;;;;;;;;;;5073512;28;20074;-47
2024/01/30 06:25:20;;;;;;;257.90;53.80;;;;;;;;;;5073398;28;20606;-47
2024/01/30 06:27:46;;;;;;;335.20;66.30;;;;;;;;;;5073382;28;20128;-47
2024/01/30 06:30:13;;;;;;;184.80;43.88;;;;;;;;;;5055522;28;20413;-49
2024/01/30 06:32:39;;;;;;;265.85;54.95;;;;;;;;;;5073207;28;20028;-47
2024/01/30 06:35:06;;;;;;;194.00;45.43;;;;;;;;;;5073226;28;20067;-49
2024/01/30 06:37:32;;;;;;;398.20;67.68;;;;;;;;;;5073285;28;20036;-46
2024/01/30 06:39:58;;;;;;;236.25;49.33;;;;;;;;;;5073524;28;20083;-48
2024/01/30 06:42:24;;;;;;;250.27;54.35;;;;;;;;;;5055251;28;20071;-47
2024/01/30 06:44:50;;;;;;;208.73;46.07;;;;;;;;;;5072839;28;20112;-46
2024/01/30 06:47:17;;;;;;;229.23;49.57;;;;;;;;;;5072595;28;20490;-50
2024/01/30 06:49:43;;;;;;;197.90;46.92;;;;;;;;;;5072993;28;20028;-50
2024/01/30 06:52:10;;;;;;;213.00;49.35;;;;;;;;;;5073102;28;20033;-47
2024/01/30 06:54:36;;;;;;;210.65;47.50;;;;;;;;;;5072920;28;20139;-46
2024/01/30 06:57:04;;;;;;;289.52;54.88;;;;;;;;;;5072525;28;20049;-46
2024/01/30 06:59:30;;;;;;;285.98;51.40;;;;;;;;;;5072775;28;20040;-47
2024/01/30 07:01:56;;;;;;;153.13;41.97;;;;;;;;;;5072815;28;20033;-47
2024/01/30 07:04:22;;;;;;;198.20;43.73;;;;;;;;;;5054964;28;20051;-47
2024/01/30 07:06:49;;;;;;;163.23;42.47;;;;;;;;;;5072079;28;20394;-47
2024/01/30 07:09:15;;;;;;;209.90;47.97;;;;;;;;;;5079558;28;20069;-47
2024/01/30 07:11:41;;;;;;;339.30;58.35;;;;;;;;;;5074493;28;20036;-46
2024/01/30 07:14:08;;;;;;;182.75;40.95;;;;;;;;;;5072450;28;20068;-49
2024/01/30 07:16:34;;;;;;;269.00;55.80;;;;;;;;;;5072464;28;20039;-47
2024/01/30 07:19:00;;;;;;;299.33;60.00;;;;;;;;;;5072433;28;20025;-46
2024/01/30 07:21:28;;;;;;;224.00;41.60;;;;;;;;;;5072322;28;20547;-46
2024/01/30 07:23:55;;;;;;;348.67;57.75;;;;;;;;;;5072191;28;20052;-46
2024/01/30 07:26:21;;;;;;;;;;;;;;;;;;5072427;28;20036;-47
2024/01/30 07:28:47;;;;;;;300.17;57.05;;;;;;;;;;5071835;28;20282;-50
2024/01/30 07:31:14;;;;;;;182.23;41.63;;;;;;;;;;5072191;28;20036;-47
2024/01/30 07:33:40;;;;;;;132.38;42.35;;;;;;;;;;5072130;28;20110;-47
2024/01/30 07:36:06;;;;;;;207.60;45.90;;;;;;;;;;5054094;28;20119;-46
2024/01/30 07:38:33;;;;;;;261.75;49.92;;;;;;;;;;5071776;28;20521;-46
2024/01/30 07:40:59;;;;;;;211.55;42.10;;;;;;;;;;5072073;28;20110;-46
2024/01/30 07:43:25;;;;;;;249.88;51.97;;;;;;;;;;5071869;28;20126;-47
2024/01/30 07:45:52;;;;;;;213.68;54.08;;;;;;;;;;5071769;28;20525;-46
2024/01/30 07:48:19;;;;;;;376.35;63.25;;;;;;;;;;5071912;28;20028;-46
2024/01/30 07:50:45;;;;;;;229.50;47.95;;;;;;;;;;5071909;28;20017;-46
2024/01/30 07:53:11;;;;;;;159.83;40.43;;;;;;;;;;5071765;28;20020;-47
2024/01/30 07:55:37;;;;;;;143.93;43.80;;;;;;;;;;5053815;28;20044;-46
2024/01/30 07:58:04;;;;;;;262.50;53.40;;;;;;;;;;5071110;28;20051;-47
2024/01/30 08:00:31;;;;;;;199.88;45.10;;;;;;;;;;5087350;28;20395;-49
2024/01/30 08:02:58;;;;;;;170.18;45.42;;;;;;;;;;5071708;28;20036;-46
2024/01/30 08:05:24;;;;;;;279.25;52.92;;;;;;;;;;5071575;28;20032;-48
2024/01/30 08:07:51;;;;;;;204.90;46.25;;;;;;;;;;5076815;28;20494;-49
2024/01/30 08:10:18;;;;;;;157.50;40.80;;;;;;;;;;5091855;28;20052;-46
2024/01/30 08:12:44;;;;;;;208.63;44.45;;;;;;;;;;5091739;28;20055;-48
2024/01/30 08:15:15;;;;;;;232.10;53.50;;;;;;;;;;5091709;28;20104;-46
2024/01/30 08:17:41;;;;;;;160.93;40.58;;;;;;;;;;5091818;28;20028;-45
2024/01/30 08:20:11;;;;;;;211.70;44.03;;;;;;;;;;5091711;28;20055;-46
2024/01/30 08:22:41;;;;;;;201.38;43.50;;;;;;;;;;5091602;28;20051;-46
2024/01/30 08:25:07;;;;;;;145.75;39.75;;;;;;;;;;5091462;28;20066;-47
2024/01/30 08:27:35;;;;;;;233.82;47.17;;;;;;;;;;5091614;28;20032;-46
2024/01/30 08:30:02;;;;;;;126.20;38.85;;;;;;;;;;5091733;28;20032;-46
2024/01/30 08:32:28;;;;;;;146.85;40.67;;;;;;;;;;5091725;28;20024;-46
2024/01/30 08:34:54;;;;;;;206.13;45.47;;;;;;;;;;5091978;28;20424;-46
2024/01/30 08:37:20;;;;;;;154.03;37.60;;;;;;;;;;5089988;28;20059;-46
2024/01/30 08:39:46;;;;;;;242.32;40.17;;;;;;;;;;5071440;28;20043;-48
2024/01/30 08:42:12;;;;;;;151.03;40.10;;;;;;;;;;5070014;28;20445;-47
2024/01/30 08:44:39;;;;;;;135.45;37.05;;;;;;;;;;5071379;28;20031;-46
2024/01/30 08:47:05;;;;;;;144.30;35.30;;;;;;;;;;5071067;28;20029;-46
2024/01/30 08:49:31;;;;;;;187.30;42.30;;;;;;;;;;5071344;28;20028;-51
2024/01/30 08:51:57;;;;;;;122.32;36.72;;;;;;;;;;5071305;28;20032;-49
2024/01/30 08:54:24;;;;;;;100.80;33.93;;;;;;;;;;5071026;28;20048;-46
2024/01/30 08:56:52;;;;;;;214.13;47.50;;;;;;;;;;5070129;28;20024;-49
2024/01/30 08:59:18;;;;;;;117.80;34.03;;;;;;;;;;5053477;28;20036;-48
2024/01/30 09:01:46;;;;;;;134.85;37.17;;;;;;;;;;5053420;28;20036;-46
2024/01/30 09:04:13;;;;;;;280.00;50.95;;;;;;;;;;5071149;28;20033;-46
2024/01/30 09:06:39;;;;;;;153.47;36.47;;;;;;;;;;5070670;28;20039;-46
2024/01/30 09:09:06;;;;;;;139.13;36.53;;;;;;;;;;5072986;28;20089;-46
2024/01/30 09:11:32;;;;;;;171.35;42.65;;;;;;;;;;5090368;28;20128;-49
2024/01/30 09:13:58;;;;;;;164.03;41.70;;;;;;;;;;5056857;28;20024;-49
2024/01/30 09:16:24;;;;;;;169.18;40.42;;;;;;;;;;5073990;28;20029;-47
2024/01/30 09:18:50;;;;;;;117.72;35.05;;;;;;;;;;5074806;28;20043;-48
2024/01/30 09:21:16;;;;;;;90.88;33.42;;;;;;;;;;5074491;28;20042;-48
2024/01/30 09:23:43;;;;;;;190.82;47.08;;;;;;;;;;5074575;28;20024;-47
2024/01/30 09:26:09;;;;;;;205.00;42.53;;;;;;;;;;5074010;28;20085;-47
2024/01/30 09:28:35;;;;;;;132.67;35.90;;;;;;;;;;5074535;28;20025;-47
2024/01/30 09:31:02;;;;;;;189.23;41.83;;;;;;;;;;5074259;28;20499;-48
2024/01/30 09:33:28;;;;;;;110.20;35.58;;;;;;;;;;5056416;28;20025;-49
2024/01/30 09:35:54;;;;;;;110.83;35.30;;;;;;;;;;5073888;28;20028;-46
2024/01/30 09:38:21;;;;;;;108.25;35.80;;;;;;;;;;5074324;28;20024;-47
2024/01/30 09:40:55;;;;;;;108.60;37.42;;;;;;;;;;5039710;28;20039;-47
2024/01/30 09:43:23;;;;;;;111.72;35.72;;;;;;;;;;5074086;28;20111;-48
2024/01/30 09:45:51;;;;;;;132.93;37.58;;;;;;;;;;5074022;28;20037;-47
2024/01/30 09:48:17;;;;;;;123.40;38.15;;;;;;;;;;5073959;28;20483;-50
2024/01/30 09:50:43;;;;;;;101.17;38.30;;;;;;;;;;5056005;28;20020;-46
2024/01/30 09:53:09;;;;;;;159.55;37.70;;;;;;;;;;5073353;28;20020;-47
2024/01/30 09:55:36;;;;;;;98.30;36.00;;;;;;;;;;5072901;28;20120;-47
2024/01/30 09:58:03;;;;;;;99.60;35.30;;;;;;;;;;5055571;28;20024;-51
2024/01/30 10:00:29;;;;;;;120.72;37.25;;;;;;;;;;5056057;28;20028;-47
2024/01/30 10:02:55;;;;;;;107.45;33.30;;;;;;;;;;5055921;28;20024;-47
2024/01/30 10:05:28;;;;;;;202.63;45.38;;;;;;;;;;5073388;28;20154;-47
2024/01/30 10:07:55;;;;;;;120.30;38.80;;;;;;;;;;5073343;28;20028;-50
2024/01/30 10:10:23;;;;;;;113.22;37.17;;;;;;;;;;5073610;28;20021;-47
2024/01/30 10:12:49;;;;;;;146.00;40.42;;;;;;;;;;5055741;28;20028;-47
2024/01/30 10:15:16;;;;;;;113.97;37.33;;;;;;;;;;5073465;28;20104;-48
2024/01/30 10:17:42;;;;;;;116.67;36.37;;;;;;;;;;5073408;28;20028;-47
2024/01/30 10:20:09;;;;;;;133.25;39.65;;;;;;;;;;5054852;28;20025;-47
2024/01/30 10:22:35;;;;;;;117.10;37.67;;;;;;;;;;5055423;28;20028;-47
2024/01/30 10:25:01;;;;;;;131.35;38.75;;;;;;;;;;5055541;28;20121;-47
2024/01/30 10:27:29;;;;;;;103.73;36.27;;;;;;;;;;5055188;28;20070;-47
2024/01/30 10:29:55;;;;;;;96.85;37.22;;;;;;;;;;5073061;28;20406;-47
2024/01/30 10:32:22;;;;;;;135.75;40.28;;;;;;;;;;5073216;28;20398;-46
2024/01/30 10:34:48;;;;;;;122.73;39.93;;;;;;;;;;5073176;28;20016;-46
2024/01/30 10:37:16;;;;;;;95.82;30.88;;;;;;;;;;5072762;28;20271;-47
2024/01/30 10:39:43;;;;;;;98.53;35.63;;;;;;;;;;5055265;28;20028;-47
2024/01/30 10:42:29;;;;;;;89.15;34.25;;;;;;;;;;5055132;28;20029;-46
2024/01/30 10:44:57;;;;;;;123.40;38.45;;;;;;;;;;5072669;28;20028;-47
2024/01/30 10:47:28;;;;;;;102.70;35.50;;;;;;;;;;5054635;28;20036;-47
2024/01/30 10:49:55;;;;;;;125.55;38.45;;;;;;;;;;5055027;28;20056;-48
2024/01/30 10:52:21;;;;;;;148.60;40.20;;;;;;;;;;5054919;28;20017;-48
2024/01/30 10:54:48;;;;;;;144.52;35.58;;;;;;;;;;5055347;28;20031;-53
2024/01/30 10:57:15;;;;;;;275.23;57.63;;;;;;;;;;5072666;28;20543;-46
2024/01/30 10:59:41;;;;;;;;;;;;;;;;;;5055150;28;20090;-47
2024/01/30 11:02:07;;;;;;;129.45;37.20;;;;;;;;;;5054831;28;20266;-46
2024/01/30 11:04:44;;;;;;;147.63;38.75;;;;;;;;;;5072881;28;20036;-48
2024/01/30 11:07:16;;;;;;;133.70;39.03;;;;;;;;;;5072384;28;20036;-47
2024/01/30 11:09:49;;;;;;;99.93;39.17;;;;;;;;;;5072377;28;20036;-47
2024/01/30 11:12:15;;;;;;;82.43;36.88;;;;;;;;;;5072413;28;20308;-47
2024/01/30 11:14:43;;;;;;;93.78;33.78;;;;;;;;;;5037830;28;20047;-47
2024/01/30 11:17:12;;;;;;;94.40;36.85;;;;;;;;;;5071343;28;20029;-46
2024/01/30 11:19:39;;;;;;;92.65;37.53;;;;;;;;;;5036790;28;20047;-46
2024/01/30 11:22:24;;;;;;;94.13;36.50;;;;;;;;;;5070188;28;20024;-52
2024/01/30 11:25:05;;;;;;;79.65;36.60;;;;;;;;;;5070455;28;20541;-46
2024/01/30 11:27:31;;;;;;;63.08;33.60;;;;;;;;;;5070061;28;20035;-46
2024/01/30 11:30:04;;;;;;;101.40;38.60;;;;;;;;;;5070470;28;20021;-46
2024/01/30 11:32:30;;;;;;;91.50;33.95;;;;;;;;;;5051845;28;20044;-46
2024/01/30 11:34:56;;;;;;;87.70;35.20;;;;;;;;;;5069667;28;20028;-46
2024/01/30 11:37:26;;;;;;;68.28;38.20;;;;;;;;;;5069628;28;20521;-50
2024/01/30 11:39:54;;;;;;;73.15;36.55;;;;;;;;;;5044808;28;20039;-46
2024/01/30 11:42:22;;;;;;;154.07;50.67;;;;;;;;;;5067658;28;20025;-47
2024/01/30 11:44:48;;;;;;;125.13;44.40;;;;;;;;;;5051871;28;20024;-46
2024/01/30 11:47:15;;;;;;;109.80;45.78;;;;;;;;;;5068392;28;20544;-45
2024/01/30 11:49:41;;;;;;;77.63;38.28;;;;;;;;;;5052176;28;20027;-45
2024/01/30 11:52:07;;;;;;;96.13;40.25;;;;;;;;;;5069764;28;20035;-46
2024/01/30 11:54:34;;;;;;;83.53;40.20;;;;;;;;;;5069756;28;20067;-46
2024/01/30 11:57:00;;;;;;;69.65;41.50;;;;;;;;;;5051381;28;20032;-46
2024/01/30 11:59:26;;;;;;;62.63;35.55;;;;;;;;;;5069060;28;20040;-47
2024/01/30 12:01:53;;;;;;;71.63;40.13;;;;;;;;;;5068674;28;20097;-46
2024/01/30 12:04:19;;;;;;;74.97;40.43;;;;;;;;;;5052006;28;20517;-46
2024/01/30 12:06:45;;;;;;;72.90;38.70;;;;;;;;;;5055295;28;20154;-46
2024/01/30 12:09:13;;;;;;;66.13;39.30;;;;;;;;;;5063299;28;20032;-45
2024/01/30 12:11:45;;;;;;;63.13;35.88;;;;;;;;;;5070145;28;20382;-45
2024/01/30 12:14:12;;;;;;;62.60;37.67;;;;;;;;;;5086185;28;20048;-46
2024/01/30 12:16:38;;;;;;;60.90;37.05;;;;;;;;;;5059551;28;20017;-46
2024/01/30 12:19:05;;;;;;;57.80;36.23;;;;;;;;;;5067481;28;20441;-47
2024/01/30 12:21:31;;;;;;;57.92;35.90;;;;;;;;;;5064277;28;20029;-46
2024/01/30 12:23:58;;;;;;;56.53;35.30;;;;;;;;;;5069077;28;20115;-47
2024/01/30 12:26:27;;;;;;;58.58;34.75;;;;;;;;;;5068481;28;20020;-48
2024/01/30 12:29:01;;;;;;;62.08;37.47;;;;;;;;;;5068730;28;20028;-47
2024/01/30 12:31:32;;;;;;;60.67;38.60;;;;;;;;;;5069271;28;20029;-47
2024/01/30 12:34:00;;;;;;;66.28;40.22;;;;;;;;;;5070591;28;20054;-46
2024/01/30 12:36:26;;;;;;;65.43;38.28;;;;;;;;;;5051467;28;20127;-46
2024/01/30 12:38:53;;;;;;;57.60;37.30;;;;;;;;;;5070561;28;20034;-46
2024/01/30 12:41:20;;;;;;;58.67;37.73;;;;;;;;;;5078367;28;20030;-45
2024/01/30 12:43:47;;;;;;;63.05;38.95;;;;;;;;;;5091119;28;20035;-46
2024/01/30 12:46:13;;;;;;;;;;;;;;;;;;5080965;28;20079;-45
2024/01/30 12:48:39;;;;;;;52.33;34.92;;;;;;;;;;5054068;28;19914;-47
2024/01/30 12:51:06;;;;;;;58.05;35.55;;;;;;;;;;5073541;28;20019;-46
2024/01/30 12:53:32;;;;;;;50.90;34.65;;;;;;;;;;5073047;28;20032;-46
2024/01/30 12:55:58;;;;;;;49.75;34.22;;;;;;;;;;5073343;28;20029;-46
2024/01/30 12:58:25;;;;;;;48.80;34.22;;;;;;;;;;5073142;28;20103;-47
2024/01/30 13:00:51;;;;;;;51.80;34.92;;;;;;;;;;5084721;28;20048;-47
2024/01/30 13:03:17;;;;;;;51.50;35.00;;;;;;;;;;5060175;28;20650;-47
2024/01/30 13:05:43;;;;;;;50.33;35.03;;;;;;;;;;5073028;28;20025;-49
2024/01/30 13:08:10;;;;;;;54.30;38.65;;;;;;;;;;5067567;28;20039;-50
2024/01/30 13:10:36;;;;;;;50.08;33.78;;;;;;;;;;5072529;28;20020;-47
2024/01/30 13:13:02;;;;;;;46.42;32.88;;;;;;;;;;5073223;28;20517;-48
2024/01/30 13:15:28;;;;;;;54.58;33.03;;;;;;;;;;5055266;28;20398;-46
2024/01/30 13:17:54;;;;;;;47.07;34.07;;;;;;;;;;5073032;28;20123;-47
2024/01/30 13:20:21;;;;;;;46.05;30.95;;;;;;;;;;5055225;28;20025;-47
2024/01/30 13:22:51;;;;;;;47.65;33.65;;;;;;;;;;5055085;28;20037;-47
2024/01/30 13:25:17;;;;;;;42.53;32.78;;;;;;;;;;5071139;28;20036;-47
2024/01/30 13:27:43;;;;;;;43.30;32.83;;;;;;;;;;5071575;28;20579;-47
2024/01/30 13:30:10;;;;;;;43.23;31.87;;;;;;;;;;5072297;28;20124;-49
2024/01/30 13:32:36;;;;;;;41.77;31.87;;;;;;;;;;5072739;28;20024;-46
2024/01/30 13:35:03;;;;;;;48.63;33.15;;;;;;;;;;5072744;28;20254;-47
2024/01/30 13:37:29;;;;;;;41.83;30.17;;;;;;;;;;5072328;28;20041;-47
2024/01/30 13:39:56;;;;;;;43.47;31.63;;;;;;;;;;5071723;28;20058;-48
2024/01/30 13:42:23;;;;;;;43.63;31.70;;;;;;;;;;5032838;28;20033;-48
2024/01/30 13:44:50;;;;;;;44.95;31.70;;;;;;;;;;5052578;28;20025;-47
2024/01/30 13:47:16;;;;;;;52.55;36.15;;;;;;;;;;5070509;28;20086;-47
2024/01/30 13:49:42;;;;;;;47.23;35.53;;;;;;;;;;5071992;28;20035;-46
2024/01/30 13:52:09;;;;;;;53.13;36.05;;;;;;;;;;5071986;28;20028;-47
2024/01/30 13:54:35;;;;;;;50.50;36.00;;;;;;;;;;5070886;28;20402;-47
2024/01/30 13:57:01;;;;;;;59.03;37.10;;;;;;;;;;5071483;28;20028;-47
2024/01/30 13:59:29;;;;;;;56.15;38.83;;;;;;;;;;5072058;28;20024;-46
2024/01/30 14:01:55;;;;;;;55.70;37.58;;;;;;;;;;5072262;28;20040;-45
2024/01/30 14:04:21;;;;;;;47.90;33.50;;;;;;;;;;5072148;28;20042;-46
2024/01/30 14:06:47;;;;;;;53.72;37.95;;;;;;;;;;5071597;28;20036;-46